Time;durP1;ratioP1;P1;durP2;ratioP2;P2;SDS_P1;SDS_P2;PMS_P1;PMS_P2;Temp;Humidity;BMP_temperature;BMP_pressure;BME280_temperature;BME280_humidity;BME280_pressure;Samples;Min_cycle;Max_cycle;Signal;HPM_P1;HPM_P2
2023/03/24 00:00:37;;;;;;;24.88;16.25;;;;;;;;;;5094123;28;20032;-72
2023/03/24 00:03:24;;;;;;;25.05;16.25;;;;;;;;;;5093907;28;20360;-71
2023/03/24 00:06:12;;;;;;;21.48;15.32;;;;;;;;;;5094333;28;20104;-71
2023/03/24 00:08:59;;;;;;;24.83;16.08;;;;;;;;;;5094774;28;20020;-71
2023/03/24 00:11:45;;;;;;;25.85;16.10;;;;;;;;;;5095469;28;20020;-72
2023/03/24 00:14:30;;;;;;;25.38;15.73;;;;;;;;;;5093333;28;20020;-71
2023/03/24 00:17:16;;;;;;;26.05;17.10;;;;;;;;;;5080035;28;20117;-72
2023/03/24 00:20:06;;;;;;;24.70;16.45;;;;;;;;;;5081871;28;20024;-71
2023/03/24 00:22:57;;;;;;;23.65;15.95;;;;;;;;;;5094316;28;20088;-70
2023/03/24 00:25:43;;;;;;;23.63;15.88;;;;;;;;;;5094498;28;20069;-71
2023/03/24 00:28:32;;;;;;;22.88;15.43;;;;;;;;;;5094187;28;20023;-71
2023/03/24 00:31:17;;;;;;;25.70;15.23;;;;;;;;;;5094257;28;20103;-72
2023/03/24 00:34:05;;;;;;;24.70;16.05;;;;;;;;;;5094783;28;20035;-71
2023/03/24 00:36:51;;;;;;;25.05;15.25;;;;;;;;;;5079466;28;20432;-71
2023/03/24 00:39:36;;;;;;;22.83;15.55;;;;;;;;;;5098249;28;20062;-70
2023/03/24 00:42:23;;;;;;;23.27;15.98;;;;;;;;;;5101879;28;20310;-72
2023/03/24 00:45:09;;;;;;;20.17;14.80;;;;;;;;;;5097198;28;20031;-71
2023/03/24 00:47:56;;;;;;;21.42;15.07;;;;;;;;;;5097988;28;20085;-72
2023/03/24 00:50:49;;;;;;;23.23;15.45;;;;;;;;;;5099001;28;20035;-71
2023/03/24 00:53:34;;;;;;;23.38;15.85;;;;;;;;;;5084018;28;20115;-71
2023/03/24 00:56:20;;;;;;;22.02;15.23;;;;;;;;;;5097492;28;20477;-71
2023/03/24 00:59:08;;;;;;;25.17;16.02;;;;;;;;;;5097195;28;20356;-71
2023/03/24 01:01:55;;;;;;;22.73;15.73;;;;;;;;;;5096978;28;20504;-70
2023/03/24 01:04:46;;;;;;;23.90;15.95;;;;;;;;;;5097571;28;20016;-72
2023/03/24 01:07:32;;;;;;;22.85;14.75;;;;;;;;;;5099218;28;20112;-71
2023/03/24 01:10:20;;;;;;;24.40;16.13;;;;;;;;;;5085094;28;20023;-72
2023/03/24 01:13:06;;;;;;;22.85;15.05;;;;;;;;;;5098254;28;20445;-71
2023/03/24 01:15:52;;;;;;;21.50;14.88;;;;;;;;;;5096814;28;20508;-72
2023/03/24 01:18:39;;;;;;;22.90;15.48;;;;;;;;;;5083591;28;20047;-72
2023/03/24 01:21:25;;;;;;;21.95;15.63;;;;;;;;;;5097204;28;20028;-71
2023/03/24 01:24:12;;;;;;;23.25;15.32;;;;;;;;;;5097864;28;20117;-71
2023/03/24 01:26:58;;;;;;;23.58;15.27;;;;;;;;;;5096701;28;20020;-71
2023/03/24 01:29:43;;;;;;;21.95;14.85;;;;;;;;;;5098514;28;20020;-71
2023/03/24 01:32:29;;;;;;;21.42;15.10;;;;;;;;;;5096643;28;20039;-71
2023/03/24 01:35:15;;;;;;;22.95;15.50;;;;;;;;;;5097142;28;20055;-72
2023/03/24 01:38:04;;;;;;;24.90;16.25;;;;;;;;;;5096569;28;20012;-72
2023/03/24 01:40:51;;;;;;;24.33;15.48;;;;;;;;;;5097794;28;20083;-72
2023/03/24 01:43:37;;;;;;;24.02;16.23;;;;;;;;;;5097560;28;20027;-72
2023/03/24 01:46:22;;;;;;;23.92;15.45;;;;;;;;;;5097084;28;20020;-71
2023/03/24 01:49:08;;;;;;;24.95;16.25;;;;;;;;;;5095635;28;20478;-71
2023/03/24 01:51:55;;;;;;;24.00;15.82;;;;;;;;;;5097043;28;20083;-71
2023/03/24 01:54:49;;;;;;;24.52;15.68;;;;;;;;;;5097096;28;20024;-70
2023/03/24 01:57:41;;;;;;;24.08;15.27;;;;;;;;;;5097480;28;20348;-70
2023/03/24 02:00:26;;;;;;;22.98;16.05;;;;;;;;;;5097050;28;20024;-71
2023/03/24 02:03:15;;;;;;;25.83;15.75;;;;;;;;;;5095894;28;20034;-71
2023/03/24 02:06:01;;;;;;;25.80;16.52;;;;;;;;;;5096897;28;20417;-71
2023/03/24 02:08:51;;;;;;;24.45;16.30;;;;;;;;;;5097148;28;20063;-71
2023/03/24 02:11:37;;;;;;;24.17;16.20;;;;;;;;;;5096249;28;20514;-71
2023/03/24 02:14:23;;;;;;;22.15;14.32;;;;;;;;;;5096662;28;20422;-71
2023/03/24 02:17:29;;;;;;;20.83;14.75;;;;;;;;;;5095189;28;20440;-70
2023/03/24 02:20:36;;;;;;;24.58;16.60;;;;;;;;;;5096157;28;20444;-72
2023/03/24 02:23:48;;;;;;;24.55;15.93;;;;;;;;;;5096072;28;20081;-71
2023/03/24 02:27:06;;;;;;;22.95;15.23;;;;;;;;;;5098086;28;20016;-71
2023/03/24 02:29:51;;;;;;;22.85;15.35;;;;;;;;;;5055391;28;20036;-71
2023/03/24 02:32:40;;;;;;;30.55;15.77;;;;;;;;;;5096410;28;20027;-72
2023/03/24 02:35:44;;;;;;;22.23;14.77;;;;;;;;;;5096091;28;20020;-71
2023/03/24 02:38:42;;;;;;;21.20;14.48;;;;;;;;;;5096061;28;20440;-71
2023/03/24 02:41:32;;;;;;;20.20;13.93;;;;;;;;;;5094851;28;20161;-71
2023/03/24 02:44:41;;;;;;;19.65;13.48;;;;;;;;;;5096178;28;20447;-71
2023/03/24 02:47:32;;;;;;;20.42;13.90;;;;;;;;;;5096093;28;20027;-71
2023/03/24 02:50:21;;;;;;;22.35;14.02;;;;;;;;;;5096421;28;20111;-71
2023/03/24 02:53:11;;;;;;;19.65;13.27;;;;;;;;;;5096050;28;20035;-72
2023/03/24 02:56:06;;;;;;;21.95;14.35;;;;;;;;;;5082304;28;20031;-71
2023/03/24 02:59:00;;;;;;;22.42;14.07;;;;;;;;;;5095868;28;20038;-71
2023/03/24 03:01:52;;;;;;;20.08;13.90;;;;;;;;;;5094385;28;20400;-71
2023/03/24 03:04:48;;;;;;;21.77;14.70;;;;;;;;;;5081268;28;20074;-71
2023/03/24 03:07:40;;;;;;;19.88;13.93;;;;;;;;;;5096141;28;20097;-72
2023/03/24 03:10:31;;;;;;;22.05;13.35;;;;;;;;;;5096102;28;20028;-71
2023/03/24 03:13:23;;;;;;;20.98;14.00;;;;;;;;;;5096207;28;20039;-71
2023/03/24 03:16:17;;;;;;;24.75;14.10;;;;;;;;;;5095956;28;20385;-71
2023/03/24 03:19:17;;;;;;;21.65;14.25;;;;;;;;;;5096494;28;20103;-72
2023/03/24 03:22:04;;;;;;;21.40;13.82;;;;;;;;;;5095264;28;20028;-71
2023/03/24 03:24:51;;;;;;;20.88;15.05;;;;;;;;;;5079934;28;20020;-72
2023/03/24 03:27:39;;;;;;;22.65;14.25;;;;;;;;;;5095877;28;20020;-71
2023/03/24 03:30:37;;;;;;;23.95;14.88;;;;;;;;;;5081635;28;20024;-72
2023/03/24 03:33:25;;;;;;;21.60;14.20;;;;;;;;;;5095434;28;20021;-72
2023/03/24 03:36:15;;;;;;;19.00;13.45;;;;;;;;;;5095079;28;20016;-71
2023/03/24 03:39:24;;;;;;;22.20;14.05;;;;;;;;;;5081642;28;20020;-71
2023/03/24 03:42:10;;;;;;;21.52;14.43;;;;;;;;;;5079854;28;20016;-71
2023/03/24 03:44:55;;;;;;;22.48;14.50;;;;;;;;;;5093907;28;20087;-71
2023/03/24 03:47:41;;;;;;;19.60;14.48;;;;;;;;;;5095372;28;20349;-72
2023/03/24 03:50:27;;;;;;;21.10;14.23;;;;;;;;;;5095836;28;20107;-71
2023/03/24 03:53:15;;;;;;;27.35;14.68;;;;;;;;;;5094454;28;20035;-71
2023/03/24 03:56:01;;;;;;;25.77;14.32;;;;;;;;;;5094707;28;20505;-72
2023/03/24 03:58:47;;;;;;;21.88;14.43;;;;;;;;;;5093658;28;20032;-72
2023/03/24 04:01:35;;;;;;;20.77;14.40;;;;;;;;;;5095691;28;20107;-71
2023/03/24 04:04:42;;;;;;;25.65;14.65;;;;;;;;;;5080923;28;20060;-71
2023/03/24 04:07:31;;;;;;;21.88;14.65;;;;;;;;;;5094397;28;20464;-72
2023/03/24 04:10:23;;;;;;;23.52;14.80;;;;;;;;;;5094191;28;20103;-72
2023/03/24 04:13:12;;;;;;;23.40;14.95;;;;;;;;;;5094526;28;20424;-72
2023/03/24 04:16:02;;;;;;;23.42;15.77;;;;;;;;;;5094043;28;20020;-72
2023/03/24 04:19:03;;;;;;;23.08;15.18;;;;;;;;;;5094736;28;20103;-71
2023/03/24 04:21:52;;;;;;;24.40;16.40;;;;;;;;;;5093801;28;20451;-71
2023/03/24 04:24:50;;;;;;;26.38;15.80;;;;;;;;;;5094221;28;20051;-72
2023/03/24 04:27:45;;;;;;;25.70;15.10;;;;;;;;;;5094385;28;20369;-72
2023/03/24 04:30:41;;;;;;;25.85;15.85;;;;;;;;;;5094163;28;20020;-72
2023/03/24 04:33:37;;;;;;;24.05;15.70;;;;;;;;;;5095413;28;20016;-71
2023/03/24 04:36:41;;;;;;;29.70;16.23;;;;;;;;;;5095169;28;20024;-72
2023/03/24 04:39:28;;;;;;;23.52;14.65;;;;;;;;;;5095078;28;20073;-72
2023/03/24 04:42:19;;;;;;;28.63;17.20;;;;;;;;;;5093996;28;20024;-72
2023/03/24 04:45:06;;;;;;;27.30;18.48;;;;;;;;;;5094228;28;20020;-71
2023/03/24 04:47:53;;;;;;;28.00;17.80;;;;;;;;;;5080199;28;20031;-71
2023/03/24 04:50:42;;;;;;;28.02;17.98;;;;;;;;;;5080004;28;20012;-71
2023/03/24 04:53:28;;;;;;;32.75;19.17;;;;;;;;;;5094527;28;20354;-72
2023/03/24 04:56:49;;;;;;;29.55;18.70;;;;;;;;;;5093850;28;20024;-72
2023/03/24 04:59:35;;;;;;;31.38;18.83;;;;;;;;;;4993777;28;20608;-71
2023/03/24 05:02:20;;;;;;;35.25;18.98;;;;;;;;;;5080681;28;20039;-74
2023/03/24 05:05:06;;;;;;;32.15;18.70;;;;;;;;;;5093258;28;20024;-71
2023/03/24 05:07:52;;;;;;;31.77;19.60;;;;;;;;;;5079843;28;20040;-72
2023/03/24 05:10:38;;;;;;;39.45;21.80;;;;;;;;;;5080856;28;20028;-72
2023/03/24 05:13:23;;;;;;;30.35;19.95;;;;;;;;;;5080844;28;20020;-72
2023/03/24 05:16:09;;;;;;;31.02;20.25;;;;;;;;;;5092591;28;20024;-71
2023/03/24 05:18:55;;;;;;;30.33;20.30;;;;;;;;;;5092601;28;20085;-72
2023/03/24 05:21:40;;;;;;;39.90;20.45;;;;;;;;;;5080653;28;20024;-71
2023/03/24 05:24:26;;;;;;;39.85;20.88;;;;;;;;;;5094395;28;20052;-71
2023/03/24 05:27:12;;;;;;;36.28;20.45;;;;;;;;;;5084392;28;20394;-72
2023/03/24 05:29:58;;;;;;;35.20;20.63;;;;;;;;;;5100735;28;20107;-72
2023/03/24 05:32:43;;;;;;;33.30;19.90;;;;;;;;;;5098135;28;20359;-72
2023/03/24 05:35:29;;;;;;;34.45;19.80;;;;;;;;;;5096318;28;20031;-71
2023/03/24 05:38:15;;;;;;;30.33;18.65;;;;;;;;;;5087053;28;20012;-71
2023/03/24 05:41:00;;;;;;;33.28;17.80;;;;;;;;;;5090582;28;20035;-71
2023/03/24 05:43:46;;;;;;;33.42;17.67;;;;;;;;;;5087520;28;20066;-72
2023/03/24 05:46:32;;;;;;;34.38;17.45;;;;;;;;;;5097516;28;20077;-71
2023/03/24 05:49:17;;;;;;;28.50;16.55;;;;;;;;;;5097396;28;20348;-72
2023/03/24 05:52:03;;;;;;;31.90;16.35;;;;;;;;;;5097778;28;20016;-71
2023/03/24 05:54:51;;;;;;;25.42;16.05;;;;;;;;;;5098451;28;20027;-71
2023/03/24 05:57:36;;;;;;;32.05;16.88;;;;;;;;;;5098786;28;20051;-71
2023/03/24 06:00:22;;;;;;;27.25;16.42;;;;;;;;;;5097733;28;20019;-72
2023/03/24 06:03:07;;;;;;;30.52;15.32;;;;;;;;;;5097496;28;20028;-71
2023/03/24 06:05:53;;;;;;;33.58;16.80;;;;;;;;;;5096717;28;20119;-72
2023/03/24 06:08:39;;;;;;;27.48;16.45;;;;;;;;;;5097755;28;20516;-72
2023/03/24 06:11:25;;;;;;;32.03;16.88;;;;;;;;;;5097486;28;20463;-72
2023/03/24 06:14:10;;;;;;;32.90;17.48;;;;;;;;;;5097305;28;20028;-71
2023/03/24 06:16:58;;;;;;;27.13;17.00;;;;;;;;;;5098011;28;20016;-71
2023/03/24 06:19:49;;;;;;;32.47;16.77;;;;;;;;;;5085582;28;20085;-71
2023/03/24 06:22:36;;;;;;;32.05;16.73;;;;;;;;;;5097145;28;20035;-71
2023/03/24 06:25:25;;;;;;;30.60;17.75;;;;;;;;;;5097380;28;20035;-71
2023/03/24 06:28:11;;;;;;;22.23;14.82;;;;;;;;;;5082202;28;20016;-72
2023/03/24 06:30:59;;;;;;;24.35;15.80;;;;;;;;;;5095290;28;20024;-72
2023/03/24 06:33:45;;;;;;;24.80;15.20;;;;;;;;;;5097118;28;20016;-72
2023/03/24 06:36:33;;;;;;;26.05;15.30;;;;;;;;;;5095860;28;20054;-71
2023/03/24 06:39:19;;;;;;;21.55;15.32;;;;;;;;;;5097626;28;20056;-73
2023/03/24 06:42:04;;;;;;;22.95;15.95;;;;;;;;;;5095450;28;20020;-72
2023/03/24 06:44:50;;;;;;;25.05;15.70;;;;;;;;;;5095972;28;20507;-72
2023/03/24 06:47:36;;;;;;;23.80;16.33;;;;;;;;;;5094973;28;20028;-73
2023/03/24 06:50:25;;;;;;;26.98;16.80;;;;;;;;;;5096949;28;20051;-72
2023/03/24 06:53:11;;;;;;;27.85;16.50;;;;;;;;;;5096099;28;20027;-72
2023/03/24 06:55:56;;;;;;;31.13;16.50;;;;;;;;;;5095890;28;20047;-72
2023/03/24 06:58:42;;;;;;;29.70;15.27;;;;;;;;;;5094511;28;20031;-71
2023/03/24 07:01:28;;;;;;;49.53;17.65;;;;;;;;;;5095383;28;20023;-72
2023/03/24 07:04:14;;;;;;;28.05;15.07;;;;;;;;;;5081777;28;20127;-72
2023/03/24 07:06:59;;;;;;;29.52;14.60;;;;;;;;;;5096232;28;20056;-71
2023/03/24 07:09:45;;;;;;;27.50;14.05;;;;;;;;;;5095107;28;20030;-72
2023/03/24 07:12:31;;;;;;;20.20;13.25;;;;;;;;;;5096130;28;20043;-72
2023/03/24 07:15:16;;;;;;;19.65;12.90;;;;;;;;;;5095448;28;20024;-73
2023/03/24 07:18:02;;;;;;;20.85;13.60;;;;;;;;;;5095194;28;20082;-72
2023/03/24 07:20:47;;;;;;;23.00;13.55;;;;;;;;;;5095118;28;20054;-72
2023/03/24 07:23:33;;;;;;;23.63;15.68;;;;;;;;;;5094562;28;20027;-72
2023/03/24 07:26:19;;;;;;;24.77;16.60;;;;;;;;;;5096169;28;20019;-71
2023/03/24 07:29:05;;;;;;;23.52;15.82;;;;;;;;;;5095798;28;20032;-72
2023/03/24 07:31:53;;;;;;;27.33;15.48;;;;;;;;;;5096077;28;20443;-72
2023/03/24 07:34:38;;;;;;;24.05;15.13;;;;;;;;;;5098657;28;20561;-71
2023/03/24 07:37:24;;;;;;;30.88;15.52;;;;;;;;;;5081628;28;20051;-71
2023/03/24 07:40:14;;;;;;;29.08;15.80;;;;;;;;;;5096567;28;20119;-72
2023/03/24 07:43:00;;;;;;;29.67;17.70;;;;;;;;;;5098354;28;20020;-73
2023/03/24 07:45:45;;;;;;;34.88;17.13;;;;;;;;;;5112180;28;20041;-74
2023/03/24 07:48:31;;;;;;;24.08;15.93;;;;;;;;;;5102513;28;20012;-72
2023/03/24 07:51:18;;;;;;;24.25;15.48;;;;;;;;;;5097647;28;20019;-71
2023/03/24 07:54:04;;;;;;;23.60;14.70;;;;;;;;;;5085049;28;20112;-72
2023/03/24 07:56:49;;;;;;;21.48;13.75;;;;;;;;;;5084809;28;20416;-72
2023/03/24 07:59:35;;;;;;;22.20;15.07;;;;;;;;;;5085104;28;20035;-72
2023/03/24 08:02:21;;;;;;;22.77;14.40;;;;;;;;;;5100912;28;20039;-72
2023/03/24 08:05:09;;;;;;;23.60;14.98;;;;;;;;;;5099855;28;20111;-72
2023/03/24 08:07:56;;;;;;;26.30;16.48;;;;;;;;;;5101666;28;20073;-71
2023/03/24 08:10:44;;;;;;;18.52;13.02;;;;;;;;;;5089433;28;20020;-72
2023/03/24 08:13:30;;;;;;;21.27;12.65;;;;;;;;;;5087183;28;20020;-72
2023/03/24 08:16:16;;;;;;;17.08;12.40;;;;;;;;;;5086079;28;20158;-72
2023/03/24 08:19:02;;;;;;;15.10;11.80;;;;;;;;;;5083291;28;20024;-72
2023/03/24 08:21:47;;;;;;;16.73;11.45;;;;;;;;;;5097129;28;20020;-72
2023/03/24 08:24:35;;;;;;;15.77;12.02;;;;;;;;;;5096595;28;20016;-72
2023/03/24 08:27:20;;;;;;;17.38;11.93;;;;;;;;;;5098005;28;20033;-72
2023/03/24 08:30:07;;;;;;;14.75;11.88;;;;;;;;;;5095284;28;20020;-73
2023/03/24 08:32:54;;;;;;;15.90;12.05;;;;;;;;;;5094551;28;20099;-73
2023/03/24 08:35:40;;;;;;;14.65;11.05;;;;;;;;;;5095168;28;20106;-71
2023/03/24 08:38:29;;;;;;;14.98;11.30;;;;;;;;;;5081452;28;20020;-71
2023/03/24 08:41:15;;;;;;;14.77;10.60;;;;;;;;;;5095889;28;20020;-72
2023/03/24 08:44:06;;;;;;;14.95;10.30;;;;;;;;;;5083728;28;20034;-72
2023/03/24 08:46:52;;;;;;;14.07;9.70;;;;;;;;;;5085457;28;20032;-73
2023/03/24 08:49:37;;;;;;;13.43;9.68;;;;;;;;;;5085117;28;20086;-73
2023/03/24 08:52:23;;;;;;;13.35;9.50;;;;;;;;;;5097510;28;20031;-72
2023/03/24 08:55:10;;;;;;;14.27;9.05;;;;;;;;;;5099331;28;20035;-72
2023/03/24 08:57:56;;;;;;;12.18;9.20;;;;;;;;;;5086050;28;20468;-74
2023/03/24 09:00:43;;;;;;;11.90;9.02;;;;;;;;;;5085505;28;20024;-72
2023/03/24 09:03:28;;;;;;;11.32;8.82;;;;;;;;;;5085934;28;20103;-73
2023/03/24 09:06:14;;;;;;;11.65;8.50;;;;;;;;;;5099290;28;20365;-72
2023/03/24 09:09:00;;;;;;;13.07;8.70;;;;;;;;;;5084588;28;20330;-72
2023/03/24 09:11:47;;;;;;;12.65;9.02;;;;;;;;;;5083845;28;20383;-72
2023/03/24 09:14:33;;;;;;;10.95;9.20;;;;;;;;;;5098701;28;20210;-71
2023/03/24 09:17:18;;;;;;;11.85;9.13;;;;;;;;;;5098966;28;20030;-71
2023/03/24 09:20:09;;;;;;;12.95;9.50;;;;;;;;;;5100921;28;20035;-72
2023/03/24 09:22:57;;;;;;;12.25;9.43;;;;;;;;;;5085129;28;20031;-72
2023/03/24 09:25:43;;;;;;;12.77;10.02;;;;;;;;;;5084564;28;20143;-72
2023/03/24 09:28:29;;;;;;;14.65;9.65;;;;;;;;;;5086977;28;20085;-71
2023/03/24 09:31:14;;;;;;;12.93;9.48;;;;;;;;;;5098523;28;20020;-72
2023/03/24 09:34:00;;;;;;;13.30;9.52;;;;;;;;;;5085397;28;20028;-72
2023/03/24 09:36:46;;;;;;;24.98;10.40;;;;;;;;;;5097193;28;20055;-71
2023/03/24 09:39:34;;;;;;;14.82;9.80;;;;;;;;;;5085099;28;20032;-72
2023/03/24 09:42:24;;;;;;;13.45;9.52;;;;;;;;;;5097651;28;20084;-72
2023/03/24 09:45:12;;;;;;;14.95;9.10;;;;;;;;;;5098290;28;20023;-72
2023/03/24 09:48:11;;;;;;;13.55;8.75;;;;;;;;;;5097566;28;20044;-72
2023/03/24 09:51:02;;;;;;;29.63;18.40;;;;;;;;;;5097853;28;20051;-72
2023/03/24 09:54:03;;;;;;;14.57;9.43;;;;;;;;;;5101702;28;20367;-72
2023/03/24 09:56:49;;;;;;;14.57;9.90;;;;;;;;;;5097551;28;20455;-75
2023/03/24 09:59:36;;;;;;;12.35;9.10;;;;;;;;;;5096512;28;20338;-72
2023/03/24 10:02:22;;;;;;;12.90;9.32;;;;;;;;;;5095864;28;20066;-71
2023/03/24 10:05:12;;;;;;;13.15;9.43;;;;;;;;;;5096058;28;20035;-71
2023/03/24 10:08:20;;;;;;;11.38;8.02;;;;;;;;;;5095936;28;20046;-74
2023/03/24 10:11:12;;;;;;;13.95;9.25;;;;;;;;;;5094917;28;20020;-72
2023/03/24 10:14:16;;;;;;;15.02;9.20;;;;;;;;;;5096332;28;20384;-73
2023/03/24 10:17:07;;;;;;;11.52;8.50;;;;;;;;;;5095460;28;20361;-72
2023/03/24 10:19:53;;;;;;;15.20;8.63;;;;;;;;;;5081957;28;20066;-72
2023/03/24 10:22:44;;;;;;;14.57;9.35;;;;;;;;;;5095637;28;20027;-72
2023/03/24 10:25:40;;;;;;;10.05;8.05;;;;;;;;;;5080425;28;20020;-72
2023/03/24 10:28:43;;;;;;;12.38;9.05;;;;;;;;;;5095103;28;20452;-72
2023/03/24 10:31:33;;;;;;;14.38;9.07;;;;;;;;;;5095308;28;20024;-73
2023/03/24 10:34:21;;;;;;;10.50;8.60;;;;;;;;;;5095510;28;20032;-71
2023/03/24 10:37:08;;;;;;;10.38;7.78;;;;;;;;;;5082169;28;20165;-71
2023/03/24 10:39:53;;;;;;;11.68;8.55;;;;;;;;;;5094904;28;20024;-71
2023/03/24 10:42:39;;;;;;;15.15;8.40;;;;;;;;;;5095263;28;20419;-71
2023/03/24 10:45:27;;;;;;;11.15;8.65;;;;;;;;;;5082437;28;20024;-71
2023/03/24 10:48:13;;;;;;;9.55;7.78;;;;;;;;;;5081830;28;20012;-72
2023/03/24 10:50:59;;;;;;;12.27;8.40;;;;;;;;;;5094276;28;20012;-73
2023/03/24 10:53:47;;;;;;;11.90;8.57;;;;;;;;;;5095673;28;20077;-71
2023/03/24 10:56:40;;;;;;;9.43;7.30;;;;;;;;;;5095326;28;20360;-73
2023/03/24 10:59:26;;;;;;;13.88;8.80;;;;;;;;;;5095188;28;20395;-73
2023/03/24 11:02:21;;;;;;;10.70;7.45;;;;;;;;;;5081002;28;20027;-74
2023/03/24 11:05:14;;;;;;;9.55;6.53;;;;;;;;;;5080956;28;20047;-73
2023/03/24 11:08:18;;;;;;;11.13;7.82;;;;;;;;;;5094854;28;20047;-72
2023/03/24 11:11:19;;;;;;;11.90;8.10;;;;;;;;;;5094809;28;20012;-73
2023/03/24 11:14:16;;;;;;;10.70;8.18;;;;;;;;;;5094923;28;20020;-73
2023/03/24 11:17:14;;;;;;;10.07;7.10;;;;;;;;;;5094739;28;20016;-73
2023/03/24 11:20:00;;;;;;;13.40;6.63;;;;;;;;;;5095544;28;20471;-72
2023/03/24 11:22:59;;;;;;;9.68;7.13;;;;;;;;;;5093821;28;20023;-72
2023/03/24 11:26:14;;;;;;;10.40;7.35;;;;;;;;;;5093753;28;20044;-72
2023/03/24 11:29:08;;;;;;;10.30;7.30;;;;;;;;;;5086722;28;20431;-73
2023/03/24 11:31:55;;;;;;;11.25;7.53;;;;;;;;;;5094811;28;20102;-72
2023/03/24 11:34:45;;;;;;;13.40;6.95;;;;;;;;;;5094439;28;20024;-72
2023/03/24 11:37:32;;;;;;;10.38;6.82;;;;;;;;;;5094001;28;20335;-72
2023/03/24 11:40:21;;;;;;;10.40;7.10;;;;;;;;;;5094160;28;20024;-73
2023/03/24 11:43:18;;;;;;;8.70;6.18;;;;;;;;;;5095434;28;20020;-72
2023/03/24 11:46:16;;;;;;;10.98;6.65;;;;;;;;;;5094231;28;20450;-72
2023/03/24 11:49:03;;;;;;;8.52;6.15;;;;;;;;;;5093929;28;20115;-72
2023/03/24 11:51:50;;;;;;;10.85;6.40;;;;;;;;;;5093423;28;20027;-72
2023/03/24 11:54:36;;;;;;;10.65;6.63;;;;;;;;;;5093218;28;20089;-72
2023/03/24 11:57:28;;;;;;;8.10;6.63;;;;;;;;;;5094241;28;20028;-72
2023/03/24 12:00:18;;;;;;;10.02;7.47;;;;;;;;;;5080033;28;20070;-72
2023/03/24 12:03:07;;;;;;;7.47;5.80;;;;;;;;;;5093301;28;20024;-71
2023/03/24 12:06:16;;;;;;;9.85;6.20;;;;;;;;;;5093980;28;20135;-72
2023/03/24 12:09:20;;;;;;;10.65;6.55;;;;;;;;;;5080320;28;20020;-72
2023/03/24 12:12:24;;;;;;;8.18;6.03;;;;;;;;;;5093418;28;20020;-72
2023/03/24 12:15:13;;;;;;;21.50;8.02;;;;;;;;;;5094637;28;20099;-72
2023/03/24 12:18:07;;;;;;;9.80;6.35;;;;;;;;;;5093938;28;20020;-71
2023/03/24 12:20:58;;;;;;;10.65;6.32;;;;;;;;;;5094017;28;20020;-72
2023/03/24 12:24:04;;;;;;;8.40;6.45;;;;;;;;;;5094120;28;20448;-72
2023/03/24 12:26:54;;;;;;;6.75;5.65;;;;;;;;;;5057115;28;20055;-71
2023/03/24 12:29:48;;;;;;;7.55;6.45;;;;;;;;;;5093887;28;20016;-72
2023/03/24 12:32:40;;;;;;;11.00;6.20;;;;;;;;;;5092826;28;20081;-72
2023/03/24 12:35:44;;;;;;;7.32;5.78;;;;;;;;;;5084060;28;20042;-72
2023/03/24 12:38:38;;;;;;;7.32;5.65;;;;;;;;;;5097384;28;20035;-72
2023/03/24 12:41:34;;;;;;;9.30;6.15;;;;;;;;;;5097881;28;20360;-72
2023/03/24 12:44:40;;;;;;;13.05;5.78;;;;;;;;;;5097562;28;20073;-72
2023/03/24 12:47:29;;;;;;;10.45;6.20;;;;;;;;;;5093333;28;20032;-72
2023/03/24 12:50:33;;;;;;;9.30;5.53;;;;;;;;;;5097199;28;20035;-72
2023/03/24 12:53:25;;;;;;;7.07;5.28;;;;;;;;;;5097164;28;20309;-73
2023/03/24 12:56:15;;;;;;;8.20;5.45;;;;;;;;;;5084665;28;20457;-74
2023/03/24 12:59:03;;;;;;;7.28;5.40;;;;;;;;;;5098141;28;20043;-72
2023/03/24 13:01:54;;;;;;;6.93;5.38;;;;;;;;;;5082327;28;20081;-72
2023/03/24 13:04:41;;;;;;;8.10;5.55;;;;;;;;;;5096925;28;20020;-72
2023/03/24 13:07:28;;;;;;;6.78;5.65;;;;;;;;;;5083445;28;20058;-72
2023/03/24 13:10:19;;;;;;;6.35;4.82;;;;;;;;;;5096613;28;20012;-72
2023/03/24 13:13:07;;;;;;;6.28;5.32;;;;;;;;;;5082446;28;20024;-72
2023/03/24 13:15:57;;;;;;;6.20;4.80;;;;;;;;;;5096687;28;20011;-71
2023/03/24 13:18:45;;;;;;;17.13;5.60;;;;;;;;;;5096959;28;20102;-72
2023/03/24 13:21:34;;;;;;;6.82;5.50;;;;;;;;;;5097074;28;20436;-72
2023/03/24 13:24:19;;;;;;;7.97;6.32;;;;;;;;;;5097614;28;20455;-71
2023/03/24 13:27:13;;;;;;;7.55;5.80;;;;;;;;;;5097324;28;20028;-72
2023/03/24 13:30:10;;;;;;;6.82;5.68;;;;;;;;;;5096866;28;20016;-71
2023/03/24 13:33:02;;;;;;;7.22;5.50;;;;;;;;;;5098770;28;20031;-71
2023/03/24 13:35:47;;;;;;;10.10;5.93;;;;;;;;;;5098083;28;20027;-72
2023/03/24 13:38:36;;;;;;;8.05;6.22;;;;;;;;;;5096798;28;20020;-72
2023/03/24 13:41:25;;;;;;;7.35;5.68;;;;;;;;;;5081953;28;20012;-72
2023/03/24 13:44:16;;;;;;;7.03;5.72;;;;;;;;;;5097190;28;20020;-71
2023/03/24 13:47:02;;;;;;;7.28;5.65;;;;;;;;;;5082802;28;20090;-72
2023/03/24 13:50:05;;;;;;;9.98;5.97;;;;;;;;;;5096209;28;20054;-72
2023/03/24 13:52:50;;;;;;;6.95;5.80;;;;;;;;;;5096190;28;20103;-72
2023/03/24 13:55:38;;;;;;;9.45;5.78;;;;;;;;;;5096711;28;20095;-72
2023/03/24 13:58:27;;;;;;;8.07;5.70;;;;;;;;;;5095768;28;20016;-71
2023/03/24 14:01:31;;;;;;;9.70;5.88;;;;;;;;;;5082208;28;20031;-72
2023/03/24 14:04:17;;;;;;;12.25;5.80;;;;;;;;;;5083270;28;20024;-72
2023/03/24 14:07:22;;;;;;;6.95;5.70;;;;;;;;;;5095775;28;20354;-71
2023/03/24 14:10:14;;;;;;;9.30;5.70;;;;;;;;;;5095329;28;20020;-72
2023/03/24 14:13:01;;;;;;;7.35;5.68;;;;;;;;;;5080897;28;20020;-71
2023/03/24 14:15:56;;;;;;;9.63;5.93;;;;;;;;;;5095664;28;20023;-72
2023/03/24 14:18:42;;;;;;;8.57;5.53;;;;;;;;;;5095435;28;20027;-72
2023/03/24 14:21:30;;;;;;;10.35;5.20;;;;;;;;;;5081656;28;20088;-72
2023/03/24 14:24:23;;;;;;;15.20;6.22;;;;;;;;;;5097266;28;20035;-71
2023/03/24 14:27:22;;;;;;;7.53;6.18;;;;;;;;;;5095609;28;20031;-71
2023/03/24 14:30:14;;;;;;;14.02;6.03;;;;;;;;;;5082626;28;20016;-71
2023/03/24 14:33:01;;;;;;;7.22;6.00;;;;;;;;;;5095585;28;20034;-71
2023/03/24 14:35:56;;;;;;;9.30;6.05;;;;;;;;;;5097047;28;20345;-70
2023/03/24 14:38:43;;;;;;;6.72;5.57;;;;;;;;;;5097091;28;20020;-70
2023/03/24 14:41:38;;;;;;;9.02;5.85;;;;;;;;;;5083224;28;20111;-71
2023/03/24 14:44:43;;;;;;;12.13;6.50;;;;;;;;;;5096303;28;20020;-71
2023/03/24 14:47:33;;;;;;;14.43;6.90;;;;;;;;;;5081694;28;20043;-71
2023/03/24 14:50:20;;;;;;;11.20;6.45;;;;;;;;;;5095835;28;20459;-71
2023/03/24 14:53:16;;;;;;;8.20;5.40;;;;;;;;;;5094693;28;20102;-74
2023/03/24 14:56:02;;;;;;;7.75;5.95;;;;;;;;;;5079908;28;20058;-71
2023/03/24 14:58:53;;;;;;;13.00;7.05;;;;;;;;;;5095209;28;20024;-72
2023/03/24 15:01:44;;;;;;;7.32;5.53;;;;;;;;;;5079508;28;20016;-70
2023/03/24 15:04:32;;;;;;;8.25;5.45;;;;;;;;;;5094374;28;20110;-71
2023/03/24 15:07:18;;;;;;;7.57;5.28;;;;;;;;;;5094272;28;20044;-71
2023/03/24 15:10:03;;;;;;;10.05;6.10;;;;;;;;;;5080474;28;20364;-71
2023/03/24 15:12:50;;;;;;;10.80;5.95;;;;;;;;;;5094578;28;20028;-72
2023/03/24 15:15:36;;;;;;;9.82;6.00;;;;;;;;;;5095239;28;20066;-70
2023/03/24 15:18:22;;;;;;;7.55;5.50;;;;;;;;;;5093506;28;20017;-71
2023/03/24 15:21:26;;;;;;;8.27;5.82;;;;;;;;;;5080871;28;20016;-71
2023/03/24 15:24:21;;;;;;;12.45;5.45;;;;;;;;;;5094816;28;20464;-71
2023/03/24 15:27:07;;;;;;;9.18;6.18;;;;;;;;;;5094427;28;20023;-72
2023/03/24 15:29:54;;;;;;;8.40;5.75;;;;;;;;;;5094161;28;20059;-71
2023/03/24 15:32:45;;;;;;;9.00;5.60;;;;;;;;;;5094041;28;20035;-72
2023/03/24 15:35:32;;;;;;;9.52;6.13;;;;;;;;;;5093519;28;20111;-71
2023/03/24 15:38:41;;;;;;;10.00;5.90;;;;;;;;;;5080959;28;20020;-72
2023/03/24 15:41:26;;;;;;;8.07;5.65;;;;;;;;;;5094404;28;20107;-72
2023/03/24 15:44:16;;;;;;;10.25;5.80;;;;;;;;;;5094802;28;20099;-72
2023/03/24 15:47:02;;;;;;;8.57;5.28;;;;;;;;;;5094314;28;20031;-71
2023/03/24 15:49:49;;;;;;;6.82;4.95;;;;;;;;;;5093808;28;20389;-72
2023/03/24 15:52:36;;;;;;;9.05;5.68;;;;;;;;;;5094549;28;20016;-72
2023/03/24 15:55:35;;;;;;;8.20;5.22;;;;;;;;;;5093901;28;20130;-73
2023/03/24 15:58:22;;;;;;;8.23;5.38;;;;;;;;;;5094941;28;20032;-73
2023/03/24 16:01:12;;;;;;;8.82;5.32;;;;;;;;;;5093523;28;20020;-71
2023/03/24 16:03:59;;;;;;;9.23;5.35;;;;;;;;;;5094584;28;20024;-71
2023/03/24 16:06:49;;;;;;;7.53;5.40;;;;;;;;;;5079561;28;20081;-71
2023/03/24 16:09:36;;;;;;;12.25;5.70;;;;;;;;;;5093607;28;20016;-72
2023/03/24 16:12:22;;;;;;;30.67;7.05;;;;;;;;;;5093694;28;20403;-73
2023/03/24 16:15:12;;;;;;;19.20;6.32;;;;;;;;;;5093797;28;20043;-71
2023/03/24 16:17:57;;;;;;;10.65;5.97;;;;;;;;;;5093604;28;20032;-72
2023/03/24 16:20:43;;;;;;;13.27;6.43;;;;;;;;;;5094006;28;20077;-72
2023/03/24 16:23:29;;;;;;;10.52;6.50;;;;;;;;;;5079988;28;20016;-72
2023/03/24 16:26:16;;;;;;;14.30;6.70;;;;;;;;;;5093949;28;20107;-73
2023/03/24 16:29:14;;;;;;;15.65;6.18;;;;;;;;;;5080508;28;20096;-72
2023/03/24 16:31:59;;;;;;;16.20;6.45;;;;;;;;;;5093099;28;20028;-72
2023/03/24 16:34:45;;;;;;;17.73;7.05;;;;;;;;;;5094244;28;20039;-71
2023/03/24 16:37:31;;;;;;;17.65;7.30;;;;;;;;;;5079945;28;20449;-73